sensor_id;sensor_type;location;lat;lon;timestamp;temperature;humidity
8002;DHT22;4046;48.774;8.732;2024-03-17T00:00:46;20.50;77.10
8002;DHT22;4046;48.774;8.732;2024-03-17T00:03:12;20.50;77.00
8002;DHT22;4046;48.774;8.732;2024-03-17T00:05:38;20.50;77.00
8002;DHT22;4046;48.774;8.732;2024-03-17T00:08:05;20.50;77.10
8002;DHT22;4046;48.774;8.732;2024-03-17T00:10:31;20.50;77.00
8002;DHT22;4046;48.774;8.732;2024-03-17T00:12:58;20.50;77.00
8002;DHT22;4046;48.774;8.732;2024-03-17T00:15:25;20.50;77.00
8002;DHT22;4046;48.774;8.732;2024-03-17T00:17:51;20.50;76.90
8002;DHT22;4046;48.774;8.732;2024-03-17T00:20:17;20.50;76.90
8002;DHT22;4046;48.774;8.732;2024-03-17T00:22:50;20.50;76.90
8002;DHT22;4046;48.774;8.732;2024-03-17T00:25:19;20.80;77.10
8002;DHT22;4046;48.774;8.732;2024-03-17T00:27:45;20.60;76.90
8002;DHT22;4046;48.774;8.732;2024-03-17T00:30:14;20.50;76.90
8002;DHT22;4046;48.774;8.732;2024-03-17T00:32:42;20.50;76.80
8002;DHT22;4046;48.774;8.732;2024-03-17T00:35:09;20.60;76.90
8002;DHT22;4046;48.774;8.732;2024-03-17T00:37:36;20.60;76.80
8002;DHT22;4046;48.774;8.732;2024-03-17T00:40:04;20.60;76.80
8002;DHT22;4046;48.774;8.732;2024-03-17T00:42:32;20.60;76.90
8002;DHT22;4046;48.774;8.732;2024-03-17T00:44:59;20.50;76.80
8002;DHT22;4046;48.774;8.732;2024-03-17T00:47:26;20.50;76.90
8002;DHT22;4046;48.774;8.732;2024-03-17T00:49:53;20.50;76.80
8002;DHT22;4046;48.774;8.732;2024-03-17T00:52:19;20.50;76.80
8002;DHT22;4046;48.774;8.732;2024-03-17T00:54:49;20.60;76.80
8002;DHT22;4046;48.774;8.732;2024-03-17T00:57:15;20.60;76.80
8002;DHT22;4046;48.774;8.732;2024-03-17T00:59:42;20.60;76.70
8002;DHT22;4046;48.774;8.732;2024-03-17T01:02:12;20.60;76.70
8002;DHT22;4046;48.774;8.732;2024-03-17T01:04:45;20.60;76.70
8002;DHT22;4046;48.774;8.732;2024-03-17T01:07:12;20.60;76.70
8002;DHT22;4046;48.774;8.732;2024-03-17T01:09:39;20.50;76.60
8002;DHT22;4046;48.774;8.732;2024-03-17T01:12:05;20.60;76.80
8002;DHT22;4046;48.774;8.732;2024-03-17T01:14:32;20.50;76.60
8002;DHT22;4046;48.774;8.732;2024-03-17T01:17:00;20.50;76.60
8002;DHT22;4046;48.774;8.732;2024-03-17T01:19:26;20.50;76.60
8002;DHT22;4046;48.774;8.732;2024-03-17T01:21:53;20.50;76.70
8002;DHT22;4046;48.774;8.732;2024-03-17T01:24:19;20.50;76.60
8002;DHT22;4046;48.774;8.732;2024-03-17T01:26:46;20.50;76.60
8002;DHT22;4046;48.774;8.732;2024-03-17T01:29:12;20.50;76.60
8002;DHT22;4046;48.774;8.732;2024-03-17T01:31:39;20.60;76.70
8002;DHT22;4046;48.774;8.732;2024-03-17T01:34:05;20.60;76.60
8002;DHT22;4046;48.774;8.732;2024-03-17T01:36:32;20.50;76.60
8002;DHT22;4046;48.774;8.732;2024-03-17T01:38:59;20.50;76.50
8002;DHT22;4046;48.774;8.732;2024-03-17T01:41:25;20.50;76.60
8002;DHT22;4046;48.774;8.732;2024-03-17T01:43:52;20.50;76.50
8002;DHT22;4046;48.774;8.732;2024-03-17T01:46:18;20.50;76.50
8002;DHT22;4046;48.774;8.732;2024-03-17T01:48:44;20.60;76.60
8002;DHT22;4046;48.774;8.732;2024-03-17T01:51:13;20.60;76.50
8002;DHT22;4046;48.774;8.732;2024-03-17T01:53:42;20.60;76.50
8002;DHT22;4046;48.774;8.732;2024-03-17T01:56:10;20.60;76.50
8002;DHT22;4046;48.774;8.732;2024-03-17T01:58:37;20.80;76.70
8002;DHT22;4046;48.774;8.732;2024-03-17T02:01:03;20.50;76.50
8002;DHT22;4046;48.774;8.732;2024-03-17T02:03:32;20.50;76.50
8002;DHT22;4046;48.774;8.732;2024-03-17T02:05:58;20.50;76.50
8002;DHT22;4046;48.774;8.732;2024-03-17T02:08:25;20.90;76.90
8002;DHT22;4046;48.774;8.732;2024-03-17T02:10:55;20.50;76.40
8002;DHT22;4046;48.774;8.732;2024-03-17T02:13:21;20.50;76.50
8002;DHT22;4046;48.774;8.732;2024-03-17T02:15:48;20.70;76.60
8002;DHT22;4046;48.774;8.732;2024-03-17T02:18:14;20.50;76.40
8002;DHT22;4046;48.774;8.732;2024-03-17T02:20:40;20.50;76.40
8002;DHT22;4046;48.774;8.732;2024-03-17T02:23:26;20.50;76.40
8002;DHT22;4046;48.774;8.732;2024-03-17T02:25:53;20.50;76.40
8002;DHT22;4046;48.774;8.732;2024-03-17T02:28:19;20.50;76.30
8002;DHT22;4046;48.774;8.732;2024-03-17T02:30:46;20.50;76.30
8002;DHT22;4046;48.774;8.732;2024-03-17T02:33:12;20.50;76.40
8002;DHT22;4046;48.774;8.732;2024-03-17T02:35:38;20.50;76.30
8002;DHT22;4046;48.774;8.732;2024-03-17T02:38:05;20.50;76.30
8002;DHT22;4046;48.774;8.732;2024-03-17T02:40:32;20.50;76.30
8002;DHT22;4046;48.774;8.732;2024-03-17T02:42:58;20.50;76.30
8002;DHT22;4046;48.774;8.732;2024-03-17T02:45:24;20.50;76.40
8002;DHT22;4046;48.774;8.732;2024-03-17T02:47:51;20.60;76.40
8002;DHT22;4046;48.774;8.732;2024-03-17T02:50:17;20.50;76.30
8002;DHT22;4046;48.774;8.732;2024-03-17T02:52:43;20.50;76.30
8002;DHT22;4046;48.774;8.732;2024-03-17T02:55:10;20.50;76.80
8002;DHT22;4046;48.774;8.732;2024-03-17T02:57:36;20.50;76.20
8002;DHT22;4046;48.774;8.732;2024-03-17T03:00:02;20.50;76.20
8002;DHT22;4046;48.774;8.732;2024-03-17T03:02:31;20.50;76.10
8002;DHT22;4046;48.774;8.732;2024-03-17T03:04:57;20.50;76.10
8002;DHT22;4046;48.774;8.732;2024-03-17T03:07:23;20.50;76.10
8002;DHT22;4046;48.774;8.732;2024-03-17T03:09:51;20.50;76.10
8002;DHT22;4046;48.774;8.732;2024-03-17T03:12:17;20.50;76.10
8002;DHT22;4046;48.774;8.732;2024-03-17T03:14:43;20.60;76.20
8002;DHT22;4046;48.774;8.732;2024-03-17T03:17:09;20.50;76.10
8002;DHT22;4046;48.774;8.732;2024-03-17T03:19:35;20.50;76.10
8002;DHT22;4046;48.774;8.732;2024-03-17T03:22:02;20.50;76.10
8002;DHT22;4046;48.774;8.732;2024-03-17T03:24:28;20.60;76.30
8002;DHT22;4046;48.774;8.732;2024-03-17T03:26:54;20.50;76.10
8002;DHT22;4046;48.774;8.732;2024-03-17T03:29:21;20.50;76.10
8002;DHT22;4046;48.774;8.732;2024-03-17T03:31:47;20.80;76.40
8002;DHT22;4046;48.774;8.732;2024-03-17T03:34:14;20.50;76.10
8002;DHT22;4046;48.774;8.732;2024-03-17T03:36:40;20.50;76.10
8002;DHT22;4046;48.774;8.732;2024-03-17T03:39:07;20.50;76.00
8002;DHT22;4046;48.774;8.732;2024-03-17T03:41:38;20.50;76.00
8002;DHT22;4046;48.774;8.732;2024-03-17T03:44:04;20.50;76.00
8002;DHT22;4046;48.774;8.732;2024-03-17T03:46:31;20.50;76.10
8002;DHT22;4046;48.774;8.732;2024-03-17T03:48:57;20.60;76.00
8002;DHT22;4046;48.774;8.732;2024-03-17T03:51:23;20.50;76.00
8002;DHT22;4046;48.774;8.732;2024-03-17T03:53:51;20.50;75.90
8002;DHT22;4046;48.774;8.732;2024-03-17T03:56:17;20.50;75.90
8002;DHT22;4046;48.774;8.732;2024-03-17T03:58:44;20.50;75.80
8002;DHT22;4046;48.774;8.732;2024-03-17T04:01:12;20.50;75.90
8002;DHT22;4046;48.774;8.732;2024-03-17T04:03:38;20.50;75.90
8002;DHT22;4046;48.774;8.732;2024-03-17T04:06:09;20.50;75.80
8002;DHT22;4046;48.774;8.732;2024-03-17T04:08:37;20.50;75.80
8002;DHT22;4046;48.774;8.732;2024-03-17T04:11:07;20.50;75.80
8002;DHT22;4046;48.774;8.732;2024-03-17T04:13:34;20.50;75.80
8002;DHT22;4046;48.774;8.732;2024-03-17T04:16:03;20.50;75.70
8002;DHT22;4046;48.774;8.732;2024-03-17T04:18:29;20.50;75.80
8002;DHT22;4046;48.774;8.732;2024-03-17T04:20:57;20.50;75.80
8002;DHT22;4046;48.774;8.732;2024-03-17T04:23:23;20.50;75.80
8002;DHT22;4046;48.774;8.732;2024-03-17T04:25:53;20.50;75.80
8002;DHT22;4046;48.774;8.732;2024-03-17T04:28:19;20.50;75.80
8002;DHT22;4046;48.774;8.732;2024-03-17T04:30:46;20.50;75.80
8002;DHT22;4046;48.774;8.732;2024-03-17T04:33:12;20.50;75.80
8002;DHT22;4046;48.774;8.732;2024-03-17T04:35:39;20.50;75.80
8002;DHT22;4046;48.774;8.732;2024-03-17T04:38:06;20.70;75.90
8002;DHT22;4046;48.774;8.732;2024-03-17T04:40:40;20.50;75.70
8002;DHT22;4046;48.774;8.732;2024-03-17T04:43:08;20.50;75.70
8002;DHT22;4046;48.774;8.732;2024-03-17T04:45:34;20.50;75.70
8002;DHT22;4046;48.774;8.732;2024-03-17T04:48:00;20.50;75.70
8002;DHT22;4046;48.774;8.732;2024-03-17T04:50:27;20.50;75.70
8002;DHT22;4046;48.774;8.732;2024-03-17T04:53:00;20.50;75.70
8002;DHT22;4046;48.774;8.732;2024-03-17T04:55:27;20.50;75.70
8002;DHT22;4046;48.774;8.732;2024-03-17T04:57:54;20.50;75.70
8002;DHT22;4046;48.774;8.732;2024-03-17T05:00:20;20.50;75.70
8002;DHT22;4046;48.774;8.732;2024-03-17T05:02:47;20.50;75.70
8002;DHT22;4046;48.774;8.732;2024-03-17T05:05:14;20.50;75.60
8002;DHT22;4046;48.774;8.732;2024-03-17T05:07:40;20.50;75.80
8002;DHT22;4046;48.774;8.732;2024-03-17T05:10:07;20.50;75.60
8002;DHT22;4046;48.774;8.732;2024-03-17T05:12:33;20.50;75.70
8002;DHT22;4046;48.774;8.732;2024-03-17T05:14:59;20.50;75.60
8002;DHT22;4046;48.774;8.732;2024-03-17T05:17:25;20.50;75.60
8002;DHT22;4046;48.774;8.732;2024-03-17T05:19:52;20.50;75.60
8002;DHT22;4046;48.774;8.732;2024-03-17T05:22:18;20.50;75.60
8002;DHT22;4046;48.774;8.732;2024-03-17T05:24:44;20.50;75.60
8002;DHT22;4046;48.774;8.732;2024-03-17T05:27:11;20.50;75.60
8002;DHT22;4046;48.774;8.732;2024-03-17T05:29:37;20.50;75.60
8002;DHT22;4046;48.774;8.732;2024-03-17T05:32:04;20.50;75.60
8002;DHT22;4046;48.774;8.732;2024-03-17T05:34:31;20.50;75.50
8002;DHT22;4046;48.774;8.732;2024-03-17T05:36:58;20.50;76.30
8002;DHT22;4046;48.774;8.732;2024-03-17T05:39:24;20.50;75.50
8002;DHT22;4046;48.774;8.732;2024-03-17T05:41:51;20.50;75.50
8002;DHT22;4046;48.774;8.732;2024-03-17T05:44:17;20.50;75.50
8002;DHT22;4046;48.774;8.732;2024-03-17T05:46:44;20.50;75.50
8002;DHT22;4046;48.774;8.732;2024-03-17T05:49:10;20.50;75.40
8002;DHT22;4046;48.774;8.732;2024-03-17T05:51:36;20.50;75.50
8002;DHT22;4046;48.774;8.732;2024-03-17T05:54:03;20.50;75.40
8002;DHT22;4046;48.774;8.732;2024-03-17T05:56:29;20.50;75.50
8002;DHT22;4046;48.774;8.732;2024-03-17T05:58:55;20.50;75.50
8002;DHT22;4046;48.774;8.732;2024-03-17T06:01:22;20.50;75.40
8002;DHT22;4046;48.774;8.732;2024-03-17T06:03:48;20.50;75.40
8002;DHT22;4046;48.774;8.732;2024-03-17T06:06:14;20.50;75.30
8002;DHT22;4046;48.774;8.732;2024-03-17T06:08:41;20.50;75.20
8002;DHT22;4046;48.774;8.732;2024-03-17T06:11:07;20.50;75.30
8002;DHT22;4046;48.774;8.732;2024-03-17T06:13:34;20.50;75.30
8002;DHT22;4046;48.774;8.732;2024-03-17T06:16:03;20.50;75.30
8002;DHT22;4046;48.774;8.732;2024-03-17T06:18:31;20.50;75.30
8002;DHT22;4046;48.774;8.732;2024-03-17T06:20:57;20.50;75.40
8002;DHT22;4046;48.774;8.732;2024-03-17T06:23:24;20.50;75.30
8002;DHT22;4046;48.774;8.732;2024-03-17T06:25:53;20.50;75.20
8002;DHT22;4046;48.774;8.732;2024-03-17T06:28:22;20.50;75.30
8002;DHT22;4046;48.774;8.732;2024-03-17T06:30:59;20.50;75.20
8002;DHT22;4046;48.774;8.732;2024-03-17T06:33:33;20.50;75.10
8002;DHT22;4046;48.774;8.732;2024-03-17T06:36:05;20.50;75.30
8002;DHT22;4046;48.774;8.732;2024-03-17T06:38:32;20.50;75.10
8002;DHT22;4046;48.774;8.732;2024-03-17T06:40:59;20.50;75.20
8002;DHT22;4046;48.774;8.732;2024-03-17T06:43:25;20.50;75.10
8002;DHT22;4046;48.774;8.732;2024-03-17T06:45:58;20.50;75.10
8002;DHT22;4046;48.774;8.732;2024-03-17T06:48:25;20.50;75.10
8002;DHT22;4046;48.774;8.732;2024-03-17T06:50:52;20.50;75.10
8002;DHT22;4046;48.774;8.732;2024-03-17T06:53:23;20.50;75.10
8002;DHT22;4046;48.774;8.732;2024-03-17T06:55:55;20.50;75.10
8002;DHT22;4046;48.774;8.732;2024-03-17T06:58:26;20.50;75.10
8002;DHT22;4046;48.774;8.732;2024-03-17T07:00:58;20.50;75.00
8002;DHT22;4046;48.774;8.732;2024-03-17T07:03:29;20.50;75.00
8002;DHT22;4046;48.774;8.732;2024-03-17T07:05:58;20.50;75.00
8002;DHT22;4046;48.774;8.732;2024-03-17T07:08:25;20.50;75.00
8002;DHT22;4046;48.774;8.732;2024-03-17T07:10:58;20.50;75.10
8002;DHT22;4046;48.774;8.732;2024-03-17T07:13:25;20.50;75.10
8002;DHT22;4046;48.774;8.732;2024-03-17T07:15:51;20.50;75.10
8002;DHT22;4046;48.774;8.732;2024-03-17T07:18:17;20.50;75.00
8002;DHT22;4046;48.774;8.732;2024-03-17T07:20:44;20.50;75.00
8002;DHT22;4046;48.774;8.732;2024-03-17T07:23:11;20.50;75.00
8002;DHT22;4046;48.774;8.732;2024-03-17T07:25:37;20.50;74.90
8002;DHT22;4046;48.774;8.732;2024-03-17T07:28:04;20.50;74.90
8002;DHT22;4046;48.774;8.732;2024-03-17T07:30:30;20.50;74.90
8002;DHT22;4046;48.774;8.732;2024-03-17T07:32:56;20.50;75.00
8002;DHT22;4046;48.774;8.732;2024-03-17T07:35:23;20.50;74.90
8002;DHT22;4046;48.774;8.732;2024-03-17T07:37:50;20.50;74.90
8002;DHT22;4046;48.774;8.732;2024-03-17T07:40:16;20.50;74.90
8002;DHT22;4046;48.774;8.732;2024-03-17T07:42:43;20.50;74.90
8002;DHT22;4046;48.774;8.732;2024-03-17T07:45:09;20.50;74.80
8002;DHT22;4046;48.774;8.732;2024-03-17T07:47:37;20.50;74.80
8002;DHT22;4046;48.774;8.732;2024-03-17T07:50:04;20.50;74.80
8002;DHT22;4046;48.774;8.732;2024-03-17T07:52:31;20.50;74.80
8002;DHT22;4046;48.774;8.732;2024-03-17T07:54:58;20.50;74.80
8002;DHT22;4046;48.774;8.732;2024-03-17T07:57:24;20.50;74.70
8002;DHT22;4046;48.774;8.732;2024-03-17T07:59:51;20.60;74.80
8002;DHT22;4046;48.774;8.732;2024-03-17T08:02:20;20.60;74.70
8002;DHT22;4046;48.774;8.732;2024-03-17T08:04:46;20.50;74.70
8002;DHT22;4046;48.774;8.732;2024-03-17T08:07:23;20.50;74.60
8002;DHT22;4046;48.774;8.732;2024-03-17T08:09:49;20.50;75.40
8002;DHT22;4046;48.774;8.732;2024-03-17T08:12:15;20.50;74.60
8002;DHT22;4046;48.774;8.732;2024-03-17T08:14:41;20.50;74.60
8002;DHT22;4046;48.774;8.732;2024-03-17T08:17:08;20.50;74.60
8002;DHT22;4046;48.774;8.732;2024-03-17T08:19:34;20.50;74.50
8002;DHT22;4046;48.774;8.732;2024-03-17T08:22:00;20.50;74.50
8002;DHT22;4046;48.774;8.732;2024-03-17T08:24:26;20.50;74.50
8002;DHT22;4046;48.774;8.732;2024-03-17T08:26:52;20.50;74.50
8002;DHT22;4046;48.774;8.732;2024-03-17T08:29:19;20.50;74.50
8002;DHT22;4046;48.774;8.732;2024-03-17T08:31:45;20.60;74.60
8002;DHT22;4046;48.774;8.732;2024-03-17T08:34:11;20.50;74.40
8002;DHT22;4046;48.774;8.732;2024-03-17T08:36:38;20.50;74.40
8002;DHT22;4046;48.774;8.732;2024-03-17T08:39:04;20.60;74.50
8002;DHT22;4046;48.774;8.732;2024-03-17T08:41:30;20.60;74.40
8002;DHT22;4046;48.774;8.732;2024-03-17T08:43:57;20.60;74.30
8002;DHT22;4046;48.774;8.732;2024-03-17T08:46:23;20.60;74.40
8002;DHT22;4046;48.774;8.732;2024-03-17T08:48:50;20.60;74.30
8002;DHT22;4046;48.774;8.732;2024-03-17T08:51:16;20.60;74.30
8002;DHT22;4046;48.774;8.732;2024-03-17T08:53:42;20.60;74.30
8002;DHT22;4046;48.774;8.732;2024-03-17T08:56:09;20.60;74.20
8002;DHT22;4046;48.774;8.732;2024-03-17T08:58:35;20.60;74.20
8002;DHT22;4046;48.774;8.732;2024-03-17T09:01:06;20.60;74.20
8002;DHT22;4046;48.774;8.732;2024-03-17T09:03:34;20.70;74.20
8002;DHT22;4046;48.774;8.732;2024-03-17T09:06:00;20.70;74.20
8002;DHT22;4046;48.774;8.732;2024-03-17T09:08:26;20.40;74.60
8002;DHT22;4046;48.774;8.732;2024-03-17T09:10:54;20.70;74.20
8002;DHT22;4046;48.774;8.732;2024-03-17T09:13:23;20.70;74.20
8002;DHT22;4046;48.774;8.732;2024-03-17T09:16:00;20.70;74.20
8002;DHT22;4046;48.774;8.732;2024-03-17T09:18:29;20.70;74.10
8002;DHT22;4046;48.774;8.732;2024-03-17T09:21:04;20.80;74.10
8002;DHT22;4046;48.774;8.732;2024-03-17T09:23:31;20.80;74.10
8002;DHT22;4046;48.774;8.732;2024-03-17T09:26:04;20.80;74.10
8002;DHT22;4046;48.774;8.732;2024-03-17T09:28:32;20.80;74.00
8002;DHT22;4046;48.774;8.732;2024-03-17T09:30:59;20.80;74.10
8002;DHT22;4046;48.774;8.732;2024-03-17T09:33:27;20.80;74.10
8002;DHT22;4046;48.774;8.732;2024-03-17T09:38:24;21.00;74.30
8002;DHT22;4046;48.774;8.732;2024-03-17T09:40:51;20.80;74.10
8002;DHT22;4046;48.774;8.732;2024-03-17T09:43:24;20.80;74.10
8002;DHT22;4046;48.774;8.732;2024-03-17T09:45:51;20.80;74.10
8002;DHT22;4046;48.774;8.732;2024-03-17T09:48:21;20.80;74.10
8002;DHT22;4046;48.774;8.732;2024-03-17T09:50:52;20.80;74.00
8002;DHT22;4046;48.774;8.732;2024-03-17T09:53:39;21.00;74.20
8002;DHT22;4046;48.774;8.732;2024-03-17T09:56:27;20.90;74.20
8002;DHT22;4046;48.774;8.732;2024-03-17T09:58:52;20.90;74.10
8002;DHT22;4046;48.774;8.732;2024-03-17T10:01:19;20.90;74.00
8002;DHT22;4046;48.774;8.732;2024-03-17T10:03:49;20.90;74.00
8002;DHT22;4046;48.774;8.732;2024-03-17T10:06:19;20.90;73.90
8002;DHT22;4046;48.774;8.732;2024-03-17T10:08:48;20.90;73.90
8002;DHT22;4046;48.774;8.732;2024-03-17T10:11:16;20.90;74.00
8002;DHT22;4046;48.774;8.732;2024-03-17T10:13:43;20.90;73.90
8002;DHT22;4046;48.774;8.732;2024-03-17T10:16:29;21.00;73.90
8002;DHT22;4046;48.774;8.732;2024-03-17T10:19:09;21.00;74.00
8002;DHT22;4046;48.774;8.732;2024-03-17T10:21:48;21.00;74.10
8002;DHT22;4046;48.774;8.732;2024-03-17T10:24:26;20.90;74.00
8002;DHT22;4046;48.774;8.732;2024-03-17T10:26:54;20.90;74.20
8002;DHT22;4046;48.774;8.732;2024-03-17T10:29:32;20.90;74.30
8002;DHT22;4046;48.774;8.732;2024-03-17T10:32:19;20.90;74.40
8002;DHT22;4046;48.774;8.732;2024-03-17T10:34:47;20.80;74.30
8002;DHT22;4046;48.774;8.732;2024-03-17T10:37:15;20.80;74.30
8002;DHT22;4046;48.774;8.732;2024-03-17T10:39:42;20.80;74.30
8002;DHT22;4046;48.774;8.732;2024-03-17T10:42:11;20.80;74.30
8002;DHT22;4046;48.774;8.732;2024-03-17T10:44:39;20.80;74.20
8002;DHT22;4046;48.774;8.732;2024-03-17T10:47:06;20.80;74.30
8002;DHT22;4046;48.774;8.732;2024-03-17T10:49:37;20.80;74.30
8002;DHT22;4046;48.774;8.732;2024-03-17T10:52:05;20.80;74.20
8002;DHT22;4046;48.774;8.732;2024-03-17T10:54:32;20.80;74.20
8002;DHT22;4046;48.774;8.732;2024-03-17T10:59:52;20.80;74.10
8002;DHT22;4046;48.774;8.732;2024-03-17T11:04:57;20.80;74.20
8002;DHT22;4046;48.774;8.732;2024-03-17T11:07:24;20.80;74.20
8002;DHT22;4046;48.774;8.732;2024-03-17T11:09:55;20.80;74.20
8002;DHT22;4046;48.774;8.732;2024-03-17T11:12:40;20.80;74.30
8002;DHT22;4046;48.774;8.732;2024-03-17T11:17:52;20.80;74.40
8002;DHT22;4046;48.774;8.732;2024-03-17T11:20:26;20.80;75.10
8002;DHT22;4046;48.774;8.732;2024-03-17T11:22:58;20.80;74.30
8002;DHT22;4046;48.774;8.732;2024-03-17T11:27:57;20.80;74.30
8002;DHT22;4046;48.774;8.732;2024-03-17T11:44:36;20.70;74.40
8002;DHT22;4046;48.774;8.732;2024-03-17T11:47:04;20.70;74.40
8002;DHT22;4046;48.774;8.732;2024-03-17T11:49:33;20.70;74.40
8002;DHT22;4046;48.774;8.732;2024-03-17T11:52:10;20.70;74.40
8002;DHT22;4046;48.774;8.732;2024-03-17T11:54:41;20.70;74.50
8002;DHT22;4046;48.774;8.732;2024-03-17T11:57:09;20.70;74.50
8002;DHT22;4046;48.774;8.732;2024-03-17T11:59:36;20.70;74.40
8002;DHT22;4046;48.774;8.732;2024-03-17T12:02:18;20.70;74.40
8002;DHT22;4046;48.774;8.732;2024-03-17T12:04:45;20.70;74.40
8002;DHT22;4046;48.774;8.732;2024-03-17T12:07:14;20.70;74.40
8002;DHT22;4046;48.774;8.732;2024-03-17T12:09:44;20.70;74.40
8002;DHT22;4046;48.774;8.732;2024-03-17T12:12:20;20.70;74.50
8002;DHT22;4046;48.774;8.732;2024-03-17T12:14:48;20.70;74.50
8002;DHT22;4046;48.774;8.732;2024-03-17T12:17:20;20.70;74.40
8002;DHT22;4046;48.774;8.732;2024-03-17T12:19:47;20.70;74.40
8002;DHT22;4046;48.774;8.732;2024-03-17T12:22:17;20.70;74.30
8002;DHT22;4046;48.774;8.732;2024-03-17T12:24:45;20.70;74.30
8002;DHT22;4046;48.774;8.732;2024-03-17T12:27:19;20.70;74.30
8002;DHT22;4046;48.774;8.732;2024-03-17T12:29:48;20.70;74.40
8002;DHT22;4046;48.774;8.732;2024-03-17T12:32:16;20.70;74.30
8002;DHT22;4046;48.774;8.732;2024-03-17T12:34:46;20.70;74.30
8002;DHT22;4046;48.774;8.732;2024-03-17T12:37:24;20.90;74.50
8002;DHT22;4046;48.774;8.732;2024-03-17T12:39:58;20.70;74.30
8002;DHT22;4046;48.774;8.732;2024-03-17T12:42:29;20.70;74.20
8002;DHT22;4046;48.774;8.732;2024-03-17T12:45:02;20.70;74.40
8002;DHT22;4046;48.774;8.732;2024-03-17T12:47:30;20.80;74.40
8002;DHT22;4046;48.774;8.732;2024-03-17T12:49:58;20.70;74.30
8002;DHT22;4046;48.774;8.732;2024-03-17T12:57:44;20.80;74.40
8002;DHT22;4046;48.774;8.732;2024-03-17T13:00:29;20.80;74.30
8002;DHT22;4046;48.774;8.732;2024-03-17T13:03:04;20.80;74.30
8002;DHT22;4046;48.774;8.732;2024-03-17T13:05:32;20.70;74.30
8002;DHT22;4046;48.774;8.732;2024-03-17T13:07:59;20.70;74.30
8002;DHT22;4046;48.774;8.732;2024-03-17T13:10:26;20.70;74.30
8002;DHT22;4046;48.774;8.732;2024-03-17T13:13:04;20.70;74.40
8002;DHT22;4046;48.774;8.732;2024-03-17T13:15:31;20.70;74.40
8002;DHT22;4046;48.774;8.732;2024-03-17T13:17:58;20.70;74.40
8002;DHT22;4046;48.774;8.732;2024-03-17T13:20:25;20.80;74.50
8002;DHT22;4046;48.774;8.732;2024-03-17T13:22:52;20.80;74.50
8002;DHT22;4046;48.774;8.732;2024-03-17T13:25:27;20.70;74.40
8002;DHT22;4046;48.774;8.732;2024-03-17T13:27:56;20.70;74.50
8002;DHT22;4046;48.774;8.732;2024-03-17T13:30:24;20.70;74.40
8002;DHT22;4046;48.774;8.732;2024-03-17T13:32:51;20.80;74.40
8002;DHT22;4046;48.774;8.732;2024-03-17T13:35:28;20.80;74.50
8002;DHT22;4046;48.774;8.732;2024-03-17T13:37:58;20.90;74.60
8002;DHT22;4046;48.774;8.732;2024-03-17T13:40:28;20.80;74.50
8002;DHT22;4046;48.774;8.732;2024-03-17T13:42:56;20.80;74.40
8002;DHT22;4046;48.774;8.732;2024-03-17T13:45:24;21.10;74.70
8002;DHT22;4046;48.774;8.732;2024-03-17T13:47:55;20.80;74.40
8002;DHT22;4046;48.774;8.732;2024-03-17T13:50:22;20.80;74.30
8002;DHT22;4046;48.774;8.732;2024-03-17T13:52:49;20.80;74.30
8002;DHT22;4046;48.774;8.732;2024-03-17T13:55:19;20.80;74.30
8002;DHT22;4046;48.774;8.732;2024-03-17T13:57:55;20.80;74.40
8002;DHT22;4046;48.774;8.732;2024-03-17T14:00:24;20.80;74.40
8002;DHT22;4046;48.774;8.732;2024-03-17T14:02:51;20.80;74.50
8002;DHT22;4046;48.774;8.732;2024-03-17T14:05:20;20.80;74.50
8002;DHT22;4046;48.774;8.732;2024-03-17T14:07:47;20.80;74.50
8002;DHT22;4046;48.774;8.732;2024-03-17T14:10:18;20.80;74.50
8002;DHT22;4046;48.774;8.732;2024-03-17T14:12:44;20.80;74.50
8002;DHT22;4046;48.774;8.732;2024-03-17T14:15:12;20.80;74.50
8002;DHT22;4046;48.774;8.732;2024-03-17T14:17:46;20.80;74.50
8002;DHT22;4046;48.774;8.732;2024-03-17T14:20:14;20.80;74.50
8002;DHT22;4046;48.774;8.732;2024-03-17T14:22:44;20.80;74.50
8002;DHT22;4046;48.774;8.732;2024-03-17T14:25:17;20.80;74.50
8002;DHT22;4046;48.774;8.732;2024-03-17T14:27:44;20.70;74.50
8002;DHT22;4046;48.774;8.732;2024-03-17T14:30:15;20.80;74.60
8002;DHT22;4046;48.774;8.732;2024-03-17T14:32:43;20.80;74.60
8002;DHT22;4046;48.774;8.732;2024-03-17T14:35:18;20.70;74.50
8002;DHT22;4046;48.774;8.732;2024-03-17T14:37:47;20.80;74.60
8002;DHT22;4046;48.774;8.732;2024-03-17T14:40:18;20.80;74.70
8002;DHT22;4046;48.774;8.732;2024-03-17T14:42:50;20.70;74.50
8002;DHT22;4046;48.774;8.732;2024-03-17T14:45:17;20.80;74.60
8002;DHT22;4046;48.774;8.732;2024-03-17T14:47:44;20.70;74.60
8002;DHT22;4046;48.774;8.732;2024-03-17T14:50:11;20.70;74.60
8002;DHT22;4046;48.774;8.732;2024-03-17T14:52:42;20.70;74.60
8002;DHT22;4046;48.774;8.732;2024-03-17T14:55:09;20.80;74.60
8002;DHT22;4046;48.774;8.732;2024-03-17T14:57:37;20.70;74.60
8002;DHT22;4046;48.774;8.732;2024-03-17T15:00:10;20.70;74.70
8002;DHT22;4046;48.774;8.732;2024-03-17T15:02:43;20.70;74.60
8002;DHT22;4046;48.774;8.732;2024-03-17T15:05:12;20.70;74.70
8002;DHT22;4046;48.774;8.732;2024-03-17T15:07:38;20.70;74.70
8002;DHT22;4046;48.774;8.732;2024-03-17T15:10:06;20.70;74.80
8002;DHT22;4046;48.774;8.732;2024-03-17T15:12:33;20.70;74.70
8002;DHT22;4046;48.774;8.732;2024-03-17T15:14:59;20.70;74.80
8002;DHT22;4046;48.774;8.732;2024-03-17T15:17:26;20.70;74.80
8002;DHT22;4046;48.774;8.732;2024-03-17T15:19:54;20.70;74.80
8002;DHT22;4046;48.774;8.732;2024-03-17T15:22:21;20.70;74.70
8002;DHT22;4046;48.774;8.732;2024-03-17T15:24:48;20.70;74.80
8002;DHT22;4046;48.774;8.732;2024-03-17T15:27:14;20.70;74.80
8002;DHT22;4046;48.774;8.732;2024-03-17T15:29:41;20.70;74.70
8002;DHT22;4046;48.774;8.732;2024-03-17T15:32:07;20.70;74.80
8002;DHT22;4046;48.774;8.732;2024-03-17T15:34:33;20.70;74.80
8002;DHT22;4046;48.774;8.732;2024-03-17T15:37:03;20.70;74.80
8002;DHT22;4046;48.774;8.732;2024-03-17T15:39:30;20.70;74.90
8002;DHT22;4046;48.774;8.732;2024-03-17T15:41:56;20.70;74.80
8002;DHT22;4046;48.774;8.732;2024-03-17T15:44:22;20.70;74.90
8002;DHT22;4046;48.774;8.732;2024-03-17T15:46:48;20.70;74.90
8002;DHT22;4046;48.774;8.732;2024-03-17T15:49:15;20.60;74.90
8002;DHT22;4046;48.774;8.732;2024-03-17T15:51:41;20.60;74.90
8002;DHT22;4046;48.774;8.732;2024-03-17T15:54:07;20.90;75.20
8002;DHT22;4046;48.774;8.732;2024-03-17T15:56:34;20.60;74.90
8002;DHT22;4046;48.774;8.732;2024-03-17T15:59:00;20.60;74.90
8002;DHT22;4046;48.774;8.732;2024-03-17T16:01:28;20.60;74.90
8002;DHT22;4046;48.774;8.732;2024-03-17T16:03:55;20.70;75.00
8002;DHT22;4046;48.774;8.732;2024-03-17T16:06:22;20.60;75.00
8002;DHT22;4046;48.774;8.732;2024-03-17T16:08:50;20.70;75.10
8002;DHT22;4046;48.774;8.732;2024-03-17T16:11:23;20.60;74.90
8002;DHT22;4046;48.774;8.732;2024-03-17T16:13:58;20.60;75.00
8002;DHT22;4046;48.774;8.732;2024-03-17T16:16:25;20.60;75.00
8002;DHT22;4046;48.774;8.732;2024-03-17T16:18:52;20.60;75.00
8002;DHT22;4046;48.774;8.732;2024-03-17T16:21:22;20.60;75.00
8002;DHT22;4046;48.774;8.732;2024-03-17T16:23:57;20.60;75.80
8002;DHT22;4046;48.774;8.732;2024-03-17T16:26:27;20.60;75.00
8002;DHT22;4046;48.774;8.732;2024-03-17T16:28:54;20.70;75.10
8002;DHT22;4046;48.774;8.732;2024-03-17T16:31:22;20.60;75.00
8002;DHT22;4046;48.774;8.732;2024-03-17T16:33:49;20.60;75.00
8002;DHT22;4046;48.774;8.732;2024-03-17T16:36:16;20.70;75.10
8002;DHT22;4046;48.774;8.732;2024-03-17T16:38:42;20.70;75.10
8002;DHT22;4046;48.774;8.732;2024-03-17T16:41:11;20.70;75.10